Kobuk Valley National Park, AK

5:22 PM AKDT op 01 april 2015 (GMT -0800)
RAWS | | Change Station
CLOSE
Current Station
Persoonlijk weerstation
Location: Kiana, AK
Geometrische hoogte: 1201 ft
Nabije weerstations

Hoogte 1201 ft 67.46 °N, 159.84 °W | Updated 44 minutes ago

Overcast
Geheel bewolkt
19 °F
Voelt als 12 °F
N
5
Wind Variabel Wind van zuid
Gusts 6.0 mijl/u

Vandaag
Hoog -- | Laag -- °F
--% Kans op neerslag
Gisteren
Hoog -- | Laag -- °F
Precip. -- inches
7:51 AM 9:40 PM
Wassende maan, 95% visible
Druk 30.22 inches
Zicht 10.0 mijlen
Wolken Geheel bewolkt 2400 ft
Gevoelstemperatuur 12 °F
Dauwpunt 16 °F
Vochtigheid 86%
Neerslag inches
Dikte sneeuw Niet beschikbaar.
UV 1 van de 12
Pollen Niet beschikbaar.
Luchtkwaliteit Niet beschikbaar.
Flu Activity Niet beschikbaar.
METAR PAIK 020101Z AUTO 22008KT 10SM OVC024 M09/M13 A3009 RMK AO2 SLP234 T10941133 FZRANO

More Conditions Fewer Conditions

Druk 30.22 inches
Zicht 10.0 mijlen
Wolken Geheel bewolkt 2400 ft
Gevoelstemperatuur 12 °F
Dauwpunt 16 °F
Vochtigheid 86%
Neerslag inches
Dikte sneeuw Niet beschikbaar.
UV 1 van de 12
Pollen Niet beschikbaar.
Luchtkwaliteit Niet beschikbaar.
Flu Activity Niet beschikbaar.
METAR PAIK 020101Z AUTO 22008KT 10SM OVC024 M09/M13 A3009 RMK AO2 SLP234 T10941133 FZRANO

More Conditions Fewer Conditions

10-Day Weather Forecast

Almanac

Astronomie

Apr. 01, 2015 Opkomst Ondergang
Werkelijke tijd
Burgerlijke schemering
Nautische schemering
Astronomische schemering
Maan
Golflengte van het zichtbare licht
Daglengte
Tomorrow will be .
, % of the Moon is Illuminated

Extremen vandaag

State Highs State Lows

Community

WunderPhotos

Upload Photos

1,810,142 foto’s ge-upload!

WunderBlogs® & News

Nearby

Luchtkwaliteit

  Luchtkwaliteit LK-index Verontreinigende stof
Not available.

Dikte sneeuw

Station Depth Geometrische hoogte

Aardbevingen

Stad Distance Mag. Time & Date
Minimum magnitude displayed is 2.5.

Watertemperatuur langs de kust

Plaats Temperatuur

Stations

Nabije weerstations

Locatie station Temp. Gevoelstemperatuur Dauwpunt Vochtigheid Wind Precip. Hoogte Geactualiseerd Type